createdAt,value
2022-12-01T00:00:00.054Z,16.25
2022-12-01T00:02:29.386Z,15.63
2022-12-01T00:04:57.380Z,15.52
2022-12-01T00:07:24.925Z,16.27
2022-12-01T00:10:10.177Z,15.18
2022-12-01T00:12:36.676Z,14.82
2022-12-01T00:15:03.174Z,15.93
2022-12-01T00:17:37.939Z,16.48
2022-12-01T00:20:08.661Z,15.75
2022-12-01T00:22:36.716Z,14.63
2022-12-01T00:25:03.679Z,15.05
2022-12-01T00:27:30.122Z,14.90
2022-12-01T00:29:56.558Z,15.65
2022-12-01T00:32:22.984Z,15.00
2022-12-01T00:34:52.025Z,15.30
2022-12-01T00:37:18.485Z,14.82
2022-12-01T00:39:45.895Z,13.17
2022-12-01T00:42:13.914Z,14.10
2022-12-01T00:44:41.535Z,13.00
2022-12-01T00:47:08.023Z,13.15
2022-12-01T00:49:41.972Z,13.82
2022-12-01T00:52:11.378Z,14.07
2022-12-01T00:54:46.117Z,14.52
2022-12-01T00:57:15.619Z,12.40
2022-12-01T00:59:43.334Z,13.10
2022-12-01T01:02:10.573Z,13.05
2022-12-01T01:04:38.934Z,12.40
2022-12-01T01:07:08.309Z,12.85
2022-12-01T01:09:34.754Z,12.27
2022-12-01T01:12:06.829Z,13.43
2022-12-01T01:14:36.677Z,12.40
2022-12-01T01:17:03.209Z,14.20
2022-12-01T01:19:29.702Z,12.13
2022-12-01T01:21:56.137Z,12.75
2022-12-01T01:24:22.546Z,12.55
2022-12-01T01:26:49.197Z,12.23
2022-12-01T01:29:15.614Z,12.00
2022-12-01T01:31:42.077Z,11.63
2022-12-01T01:34:09.672Z,11.23
2022-12-01T01:36:39.385Z,11.15
2022-12-01T01:39:07.503Z,10.57
2022-12-01T01:41:37.485Z,10.83
2022-12-01T01:44:26.315Z,10.75
2022-12-01T01:46:52.854Z,10.95
2022-12-01T01:49:19.301Z,10.65
2022-12-01T01:51:50.262Z,10.55
2022-12-01T01:54:27.072Z,10.93
2022-12-01T01:56:55.131Z,10.43
2022-12-01T01:59:24.076Z,10.00
2022-12-01T02:01:57.458Z,9.55
2022-12-01T02:09:48.892Z,9.15
2022-12-01T02:12:36.796Z,9.40
2022-12-01T02:15:38.126Z,8.90
2022-12-01T02:18:16.716Z,8.65
2022-12-01T02:21:11.141Z,8.20
2022-12-01T02:23:49.649Z,9.40
2022-12-01T02:26:37.491Z,9.52
2022-12-01T02:29:28.376Z,9.45
2022-12-01T02:32:22.942Z,9.15
2022-12-01T02:35:10.474Z,8.90
2022-12-01T02:37:59.209Z,9.20
2022-12-01T02:40:35.907Z,8.93
2022-12-01T02:43:20.817Z,8.98
2022-12-01T02:45:54.515Z,9.75
2022-12-01T02:48:25.238Z,9.47
2022-12-01T02:50:52.549Z,9.35
2022-12-01T02:53:24.450Z,9.73
2022-12-01T02:56:19.173Z,9.32
2022-12-01T02:58:45.600Z,9.35
2022-12-01T03:01:36.654Z,9.53
2022-12-01T03:04:29.539Z,9.15
2022-12-01T03:07:20.934Z,8.88
2022-12-01T03:10:25.198Z,8.23
2022-12-01T03:12:51.744Z,9.05
2022-12-01T03:15:48.982Z,8.53
2022-12-01T03:18:43.623Z,8.93
2022-12-01T03:21:45.553Z,9.02
2022-12-01T03:27:03.323Z,8.30
2022-12-01T03:29:38.667Z,9.23
2022-12-01T03:32:31.878Z,8.93
2022-12-01T03:35:16.131Z,8.23
2022-12-01T03:38:20.700Z,8.88
2022-12-01T03:44:57.424Z,7.90
2022-12-01T03:51:25.796Z,8.40
2022-12-01T03:58:00.130Z,7.90
2022-12-01T04:00:26.880Z,9.20
2022-12-01T04:04:01.733Z,9.35
2022-12-01T04:06:28.254Z,8.95
2022-12-01T04:09:51.950Z,9.93
2022-12-01T04:12:30.667Z,8.98
2022-12-01T04:14:57.986Z,7.97
2022-12-01T04:17:25.123Z,8.00
2022-12-01T04:19:51.850Z,7.97
2022-12-01T04:22:18.553Z,7.50
2022-12-01T04:24:45.324Z,8.38
2022-12-01T04:27:19.417Z,6.30
2022-12-01T04:29:50.462Z,7.88
2022-12-01T04:32:17.098Z,7.55
2022-12-01T04:34:43.542Z,7.72
2022-12-01T04:37:10.390Z,7.78
2022-12-01T04:43:27.577Z,6.97
2022-12-01T04:45:54.027Z,7.22
2022-12-01T04:48:24.479Z,7.05
2022-12-01T04:50:53.006Z,7.55
2022-12-01T04:53:21.802Z,7.27
2022-12-01T04:55:48.237Z,7.60
2022-12-01T04:58:14.737Z,6.68
2022-12-01T05:01:06.391Z,7.18
2022-12-01T05:03:39.478Z,7.13
2022-12-01T05:06:19.640Z,7.07
2022-12-01T05:08:49.678Z,6.78
2022-12-01T05:11:22.769Z,7.18
2022-12-01T05:13:50.304Z,6.65
2022-12-01T05:16:32.314Z,7.13
2022-12-01T05:19:40.644Z,6.93
2022-12-01T05:22:08.478Z,7.03
2022-12-01T05:24:43.575Z,8.00
2022-12-01T05:27:10.044Z,5.32
2022-12-01T05:29:36.457Z,8.10
2022-12-01T05:32:11.417Z,7.73
2022-12-01T05:34:45.400Z,7.03
2022-12-01T05:37:14.930Z,6.85
2022-12-01T05:39:41.680Z,5.65
2022-12-01T05:42:14.375Z,6.00
2022-12-01T05:44:40.804Z,7.17
2022-12-01T05:47:14.724Z,6.60
2022-12-01T05:49:43.076Z,7.90
2022-12-01T05:52:14.964Z,7.43
2022-12-01T05:54:48.428Z,7.65
2022-12-01T06:01:00.527Z,8.13
2022-12-01T06:03:32.067Z,6.25
2022-12-01T06:06:00.805Z,7.35
2022-12-01T06:08:27.809Z,7.78
2022-12-01T06:10:54.224Z,7.37
2022-12-01T06:13:32.501Z,7.75
2022-12-01T06:16:06.077Z,6.85
2022-12-01T06:18:48.303Z,7.82
2022-12-01T06:21:14.731Z,5.30
2022-12-01T06:23:41.188Z,7.03
2022-12-01T06:26:08.709Z,7.28
2022-12-01T06:28:35.208Z,7.82
2022-12-01T06:31:03.648Z,7.53
2022-12-01T06:33:31.626Z,8.32
2022-12-01T06:36:11.962Z,7.87
2022-12-01T06:38:38.553Z,8.55
2022-12-01T06:41:39.313Z,9.27
2022-12-01T06:44:10.183Z,8.73
2022-12-01T06:46:37.014Z,8.65
2022-12-01T06:53:04.995Z,7.88
2022-12-01T06:55:31.459Z,8.43
2022-12-01T06:58:00.210Z,6.93
2022-12-01T07:00:26.945Z,9.10
2022-12-01T07:02:53.427Z,8.03
2022-12-01T07:05:20.212Z,8.73
2022-12-01T07:07:47.241Z,8.68
2022-12-01T07:10:14.220Z,9.38
2022-12-01T07:12:41.993Z,8.43
2022-12-01T07:15:09.001Z,9.13
2022-12-01T07:17:36.236Z,9.05
2022-12-01T07:20:03.980Z,10.80
2022-12-01T07:22:32.825Z,10.07
2022-12-01T07:25:06.445Z,10.35
2022-12-01T07:27:32.847Z,9.20
2022-12-01T07:29:59.270Z,9.90
2022-12-01T07:32:25.756Z,9.77
2022-12-01T07:34:52.180Z,9.23
2022-12-01T07:37:18.616Z,9.60
2022-12-01T07:39:45.065Z,8.47
2022-12-01T07:42:11.479Z,9.55
2022-12-01T07:44:37.913Z,8.23
2022-12-01T07:47:04.481Z,8.40
2022-12-01T07:49:30.902Z,7.50
2022-12-01T07:51:57.340Z,8.37
2022-12-01T07:54:25.445Z,8.68
2022-12-01T07:56:51.895Z,8.73
2022-12-01T07:59:18.361Z,8.07
2022-12-01T08:01:46.056Z,9.07
2022-12-01T08:04:12.595Z,8.60
2022-12-01T08:06:39.135Z,9.80
2022-12-01T08:09:06.044Z,9.65
2022-12-01T08:11:32.512Z,9.40
2022-12-01T08:13:58.970Z,10.15
2022-12-01T08:16:26.301Z,8.87
2022-12-01T08:18:54.169Z,8.40
2022-12-01T08:21:22.167Z,8.40
2022-12-01T08:23:51.840Z,8.95
2022-12-01T08:26:19.290Z,8.40
2022-12-01T08:28:46.404Z,9.30
2022-12-01T08:31:22.903Z,8.82
2022-12-01T08:33:50.563Z,9.52
2022-12-01T08:36:19.120Z,7.97
2022-12-01T08:38:48.109Z,8.05
2022-12-01T08:41:15.277Z,8.30
2022-12-01T08:44:00.346Z,7.47
2022-12-01T08:46:32.025Z,7.60
2022-12-01T08:48:58.576Z,7.80
2022-12-01T08:51:25.838Z,6.97
2022-12-01T08:53:54.937Z,7.33
2022-12-01T08:56:25.252Z,7.38
2022-12-01T08:58:52.163Z,6.85
2022-12-01T09:01:20.330Z,7.95
2022-12-01T09:03:46.907Z,7.28
2022-12-01T09:06:16.238Z,7.63
2022-12-01T09:08:45.806Z,7.32
2022-12-01T09:11:17.082Z,6.80
2022-12-01T09:13:46.002Z,7.13
2022-12-01T09:16:16.722Z,7.10
2022-12-01T09:18:44.663Z,7.27
2022-12-01T09:21:11.245Z,7.85
2022-12-01T09:23:37.876Z,7.85
2022-12-01T09:26:04.466Z,7.50
2022-12-01T09:28:30.922Z,7.05
2022-12-01T09:30:58.855Z,7.17
2022-12-01T09:33:25.297Z,7.35
2022-12-01T09:35:52.967Z,7.38
2022-12-01T09:38:20.838Z,6.65
2022-12-01T09:40:47.331Z,6.93
2022-12-01T09:43:18.974Z,7.00
2022-12-01T09:45:50.498Z,7.03
2022-12-01T09:48:26.896Z,7.53
2022-12-01T09:50:54.896Z,6.53
2022-12-01T09:53:24.763Z,6.05
2022-12-01T09:55:51.556Z,5.83
2022-12-01T09:58:21.772Z,7.20
2022-12-01T10:00:50.154Z,7.40
2022-12-01T10:03:45.422Z,6.55
2022-12-01T10:06:27.859Z,6.10
2022-12-01T10:09:19.404Z,5.83
2022-12-01T10:11:47.158Z,6.57
2022-12-01T10:14:20.529Z,6.30
2022-12-01T10:17:03.910Z,5.90
2022-12-01T10:20:16.069Z,6.00
2022-12-01T10:22:49.370Z,6.30
2022-12-01T10:25:25.582Z,5.75
2022-12-01T10:28:07.347Z,6.00
2022-12-01T10:30:39.298Z,6.47
2022-12-01T10:33:31.401Z,5.82
2022-12-01T10:35:58.130Z,5.50
2022-12-01T10:38:24.564Z,5.00
2022-12-01T10:40:51.633Z,7.22
2022-12-01T10:43:18.053Z,6.80
2022-12-01T10:45:45.946Z,5.88
2022-12-01T10:48:18.174Z,6.07
2022-12-01T10:50:50.112Z,6.65
2022-12-01T10:53:27.297Z,6.95
2022-12-01T10:56:15.896Z,5.43
2022-12-01T10:58:49.050Z,6.22
2022-12-01T11:01:20.819Z,5.60
2022-12-01T11:03:52.058Z,5.18
2022-12-01T11:06:22.519Z,4.63
2022-12-01T11:08:57.801Z,4.82
2022-12-01T11:11:33.560Z,4.85
2022-12-01T11:14:05.184Z,5.43
2022-12-01T11:16:41.734Z,5.05
2022-12-01T11:19:36.497Z,4.38
2022-12-01T11:22:20.339Z,4.93
2022-12-01T11:24:58.513Z,4.10
2022-12-01T11:27:28.832Z,4.30
2022-12-01T11:29:57.573Z,4.80
2022-12-01T11:32:29.622Z,4.05
2022-12-01T11:35:15.485Z,4.65
2022-12-01T11:38:27.747Z,4.30
2022-12-01T11:40:54.592Z,4.10
2022-12-01T11:43:37.494Z,4.15
2022-12-01T11:46:08.115Z,4.57
2022-12-01T11:48:36.264Z,3.60
2022-12-01T11:51:29.046Z,4.00
2022-12-01T11:54:11.061Z,4.10
2022-12-01T11:56:37.550Z,3.10
2022-12-01T11:59:06.708Z,3.35
2022-12-01T12:02:14.166Z,4.20
2022-12-01T12:04:57.435Z,4.18
2022-12-01T12:07:42.495Z,3.50
2022-12-01T12:10:33.475Z,3.83
2022-12-01T12:13:21.748Z,3.80
2022-12-01T12:16:33.463Z,3.60
2022-12-01T12:20:06.023Z,3.30
2022-12-01T12:23:14.381Z,4.10
2022-12-01T12:26:06.621Z,3.60
2022-12-01T12:28:52.951Z,3.90
2022-12-01T12:31:50.383Z,3.88
2022-12-01T12:34:34.121Z,4.22
2022-12-01T12:37:29.633Z,3.77
2022-12-01T12:40:12.157Z,3.92
2022-12-01T12:43:03.884Z,3.42
2022-12-01T12:45:54.590Z,3.15
2022-12-01T12:48:26.980Z,3.70
2022-12-01T12:51:10.823Z,3.07
2022-12-01T12:53:45.074Z,3.25
2022-12-01T12:56:14.790Z,3.05
2022-12-01T12:58:53.239Z,3.28
2022-12-01T13:01:24.111Z,3.30
2022-12-01T13:04:01.090Z,2.77
2022-12-01T13:06:40.396Z,3.60
2022-12-01T13:09:14.224Z,2.90
2022-12-01T13:11:50.247Z,2.92
2022-12-01T13:14:37.345Z,3.50
2022-12-01T13:17:30.961Z,3.87
2022-12-01T13:19:57.467Z,3.65
2022-12-01T13:22:31.285Z,3.22
2022-12-01T13:24:58.016Z,3.60
2022-12-01T13:27:26.192Z,2.95
2022-12-01T13:29:54.282Z,2.63
2022-12-01T13:32:48.264Z,2.95
2022-12-01T13:35:44.435Z,2.65
2022-12-01T13:38:19.977Z,2.78
2022-12-01T13:40:46.798Z,3.13
2022-12-01T13:43:19.575Z,3.03
2022-12-01T13:45:46.593Z,2.95
2022-12-01T13:48:37.988Z,2.80
2022-12-01T13:51:04.949Z,2.65
2022-12-01T13:53:38.742Z,3.63
2022-12-01T13:56:19.740Z,3.40
2022-12-01T13:58:51.032Z,3.53
2022-12-01T14:01:20.764Z,3.17
2022-12-01T14:04:02.439Z,3.45
2022-12-01T14:06:38.998Z,4.38
2022-12-01T14:09:13.824Z,3.73
2022-12-01T14:11:40.484Z,3.75
2022-12-01T14:14:24.249Z,3.60
2022-12-01T14:16:59.259Z,3.70
2022-12-01T14:19:46.253Z,3.88
2022-12-01T14:22:34.574Z,4.03
2022-12-01T14:25:01.547Z,3.17
2022-12-01T14:27:40.117Z,3.55
2022-12-01T14:30:46.828Z,3.45
2022-12-01T14:33:52.387Z,3.40
2022-12-01T14:36:24.876Z,2.97
2022-12-01T14:38:53.840Z,3.08
2022-12-01T14:41:30.619Z,2.70
2022-12-01T14:44:06.613Z,2.88
2022-12-01T14:46:57.948Z,3.10
2022-12-01T14:49:28.317Z,2.90
2022-12-01T14:51:59.397Z,2.90
2022-12-01T14:54:31.277Z,3.22
2022-12-01T14:57:05.880Z,3.28
2022-12-01T14:59:33.876Z,2.95
2022-12-01T15:02:12.434Z,2.80
2022-12-01T15:05:08.693Z,2.70
2022-12-01T15:07:43.713Z,3.67
2022-12-01T15:10:21.596Z,3.35
2022-12-01T15:12:49.092Z,3.50
2022-12-01T15:15:17.832Z,3.87
2022-12-01T15:17:47.613Z,4.07
2022-12-01T15:20:29.202Z,4.38
2022-12-01T15:22:56.358Z,4.00
2022-12-01T15:25:23.502Z,3.33
2022-12-01T15:28:16.241Z,3.30
2022-12-01T15:30:44.774Z,3.40
2022-12-01T15:33:27.157Z,4.18
2022-12-01T15:35:55.059Z,3.67
2022-12-01T15:38:27.733Z,3.15
2022-12-01T15:41:27.395Z,3.77
2022-12-01T15:43:41.584Z,3.70
2022-12-01T15:46:17.715Z,4.03
2022-12-01T15:48:45.399Z,3.85
2022-12-01T15:51:26.008Z,3.45
2022-12-01T15:53:59.069Z,4.37
2022-12-01T15:56:32.168Z,4.22
2022-12-01T15:59:09.485Z,4.80
2022-12-01T16:01:36.435Z,4.68
2022-12-01T16:04:06.558Z,4.32
2022-12-01T16:06:35.483Z,4.00
2022-12-01T16:09:43.067Z,4.07
2022-12-01T16:12:09.526Z,3.53
2022-12-01T16:14:38.825Z,4.13
2022-12-01T16:17:08.597Z,5.10
2022-12-01T16:19:36.000Z,4.17
2022-12-01T16:22:11.680Z,4.35
2022-12-01T16:24:45.724Z,4.55
2022-12-01T16:27:24.237Z,4.07
2022-12-01T16:29:56.864Z,4.32
2022-12-01T16:32:35.949Z,4.30
2022-12-01T16:35:05.269Z,4.70
2022-12-01T16:37:31.818Z,6.53
2022-12-01T16:39:58.640Z,7.72
2022-12-01T16:42:25.095Z,9.32
2022-12-01T16:44:52.114Z,8.73
2022-12-01T16:47:28.914Z,9.25
2022-12-01T16:49:55.372Z,8.50
2022-12-01T16:55:38.733Z,9.48
2022-12-01T16:58:06.673Z,9.90
2022-12-01T17:00:33.455Z,11.88
2022-12-01T17:03:00.326Z,13.18
2022-12-01T17:05:28.568Z,12.43
2022-12-01T17:07:55.572Z,13.25
2022-12-01T17:10:23.059Z,12.57
2022-12-01T17:12:50.201Z,12.00
2022-12-01T17:15:17.785Z,11.73
2022-12-01T17:17:44.608Z,12.43
2022-12-01T17:20:11.283Z,9.52
2022-12-01T17:22:37.837Z,11.23
2022-12-01T17:25:09.503Z,11.20
2022-12-01T17:27:39.087Z,11.63
2022-12-01T17:30:07.200Z,11.07
2022-12-01T17:32:33.744Z,12.52
2022-12-01T17:35:00.210Z,13.87
2022-12-01T17:37:27.985Z,14.45
2022-12-01T17:39:57.233Z,16.55
2022-12-01T17:42:23.773Z,14.38
2022-12-01T17:44:50.574Z,14.25
2022-12-01T17:47:17.259Z,13.77
2022-12-01T17:49:43.773Z,13.65
2022-12-01T17:52:10.322Z,12.70
2022-12-01T17:54:36.836Z,10.48
2022-12-01T17:57:03.338Z,10.18
2022-12-01T17:59:29.859Z,9.30
2022-12-01T18:01:56.505Z,9.55
2022-12-01T18:04:22.966Z,9.88
2022-12-01T18:06:54.051Z,9.57
2022-12-01T18:09:21.206Z,8.85
2022-12-01T18:11:47.708Z,9.00
2022-12-01T18:14:17.639Z,9.60
2022-12-01T18:16:44.642Z,8.80
2022-12-01T18:19:11.151Z,8.90
2022-12-01T18:21:40.874Z,8.68
2022-12-01T18:24:09.191Z,8.43
2022-12-01T18:26:38.209Z,8.88
2022-12-01T18:29:26.265Z,8.30
2022-12-01T18:31:54.809Z,7.93
2022-12-01T18:34:21.319Z,7.63
2022-12-01T18:36:55.090Z,7.87
2022-12-01T18:39:26.633Z,8.50
2022-12-01T18:42:50.082Z,8.75
2022-12-01T18:45:24.146Z,8.93
2022-12-01T18:47:50.634Z,9.60
2022-12-01T18:50:17.082Z,9.40
2022-12-01T18:52:43.479Z,10.27
2022-12-01T18:55:09.937Z,10.10
2022-12-01T18:57:36.505Z,9.98
2022-12-01T19:00:14.043Z,10.00
2022-12-01T19:02:40.615Z,10.80
2022-12-01T19:05:07.270Z,11.00
2022-12-01T19:07:33.829Z,11.75
2022-12-01T19:10:04.617Z,11.10
2022-12-01T19:12:36.453Z,12.32
2022-12-01T19:15:06.643Z,11.90
2022-12-01T19:17:33.475Z,13.07
2022-12-01T19:20:01.303Z,13.07
2022-12-01T19:22:28.461Z,13.43
2022-12-01T19:24:55.175Z,12.82
2022-12-01T19:27:24.020Z,11.93
2022-12-01T19:29:52.185Z,11.85
2022-12-01T19:32:19.431Z,11.52
2022-12-01T19:34:45.877Z,11.55
2022-12-01T19:37:13.943Z,11.80
2022-12-01T19:39:40.506Z,11.97
2022-12-01T19:45:24.464Z,12.57
2022-12-01T19:47:53.518Z,11.38
2022-12-01T19:50:27.438Z,12.77
2022-12-01T19:52:53.920Z,12.10
2022-12-01T19:55:21.732Z,12.73
2022-12-01T19:57:51.691Z,12.57
2022-12-01T20:00:25.986Z,12.85
2022-12-01T20:05:38.423Z,11.67
2022-12-01T20:08:05.079Z,11.65
2022-12-01T20:10:32.589Z,11.48
2022-12-01T20:13:11.360Z,10.85
2022-12-01T20:15:37.838Z,10.52
2022-12-01T20:18:04.319Z,11.53
2022-12-01T20:20:31.120Z,10.70
2022-12-01T20:23:00.435Z,9.65
2022-12-01T20:25:26.894Z,10.02
2022-12-01T20:27:53.455Z,10.00
2022-12-01T20:30:19.943Z,9.10
2022-12-01T20:32:46.410Z,9.60
2022-12-01T20:35:12.972Z,8.98
2022-12-01T20:37:39.414Z,9.27
2022-12-01T20:40:06.538Z,9.80
2022-12-01T20:42:33.092Z,9.30
2022-12-01T20:44:59.583Z,9.63
2022-12-01T20:47:28.517Z,9.82
2022-12-01T20:49:58.326Z,8.88
2022-12-01T20:52:25.045Z,9.60
2022-12-01T20:54:53.220Z,9.43
2022-12-01T20:57:19.687Z,8.73
2022-12-01T20:59:46.125Z,10.73
2022-12-01T21:02:12.578Z,10.95
2022-12-01T21:04:39.073Z,9.88
2022-12-01T21:07:05.550Z,10.00
2022-12-01T21:09:32.006Z,10.15
2022-12-01T21:12:29.083Z,9.75
2022-12-01T21:15:05.805Z,9.70
2022-12-01T21:17:35.819Z,9.63
2022-12-01T21:20:12.922Z,9.77
2022-12-01T21:22:39.394Z,9.60
2022-12-01T21:25:18.466Z,9.88
2022-12-01T21:27:46.695Z,9.43
2022-12-01T21:30:17.713Z,8.18
2022-12-01T21:32:44.692Z,8.80
2022-12-01T21:35:29.285Z,9.32
2022-12-01T21:38:02.148Z,9.00
2022-12-01T21:40:48.810Z,9.07
2022-12-01T21:43:24.721Z,9.07
2022-12-01T21:45:58.897Z,9.50
2022-12-01T21:48:25.615Z,9.52
2022-12-01T21:50:59.140Z,10.60
2022-12-01T21:53:33.512Z,11.95
2022-12-01T21:55:59.944Z,11.77
2022-12-01T21:58:34.425Z,12.43
2022-12-01T22:01:01.646Z,13.10
2022-12-01T22:03:31.510Z,12.48
2022-12-01T22:06:31.914Z,12.57
2022-12-01T22:09:02.067Z,12.85
2022-12-01T22:11:29.974Z,12.17
2022-12-01T22:14:18.135Z,12.90
2022-12-01T22:16:48.737Z,10.98
2022-12-01T22:22:23.680Z,15.07
2022-12-01T22:25:02.435Z,12.87
2022-12-01T22:27:39.262Z,13.05
2022-12-01T22:30:06.047Z,13.85
2022-12-01T22:32:35.582Z,12.43
2022-12-01T22:36:01.024Z,12.55
2022-12-01T22:38:40.560Z,12.33
2022-12-01T22:41:14.012Z,13.95
2022-12-01T22:43:46.122Z,13.23
2022-12-01T22:46:29.209Z,12.30
2022-12-01T22:48:57.459Z,13.65
2022-12-01T22:51:36.460Z,12.60
2022-12-01T22:54:11.916Z,13.68
2022-12-01T22:56:43.499Z,13.27
2022-12-01T22:59:24.267Z,12.65
2022-12-01T23:01:55.757Z,12.10
2022-12-01T23:04:33.302Z,12.83
2022-12-01T23:07:25.930Z,13.52
2022-12-01T23:09:52.559Z,13.50
2022-12-01T23:12:50.332Z,13.80
2022-12-01T23:15:35.924Z,13.32
2022-12-01T23:18:15.963Z,13.27
2022-12-01T23:20:44.290Z,12.88
2022-12-01T23:23:15.920Z,14.02
2022-12-01T23:25:43.048Z,12.40
2022-12-01T23:28:11.654Z,12.75
2022-12-01T23:30:40.225Z,12.20
2022-12-01T23:33:32.402Z,12.70
2022-12-01T23:36:25.301Z,12.60
2022-12-01T23:38:57.565Z,11.98
2022-12-01T23:41:39.469Z,12.73
2022-12-01T23:44:38.758Z,13.07
2022-12-01T23:47:12.808Z,12.60
2022-12-01T23:49:39.295Z,12.02
2022-12-01T23:52:19.671Z,11.95
2022-12-01T23:54:47.004Z,11.13
2022-12-01T23:57:26.222Z,12.77
2022-12-01T23:59:59.289Z,11.25
